Time;durP1;ratioP1;P1;durP2;ratioP2;P2;SDS_P1;SDS_P2;PMS_P1;PMS_P2;Temp;Humidity;BMP_temperature;BMP_pressure;BME280_temperature;BME280_humidity;BME280_pressure;Samples;Min_cycle;Max_cycle;Signal;HPM_P1;HPM_P2
2022/11/17 00:01:42;;;;;;;13.77;6.47;;;;;;;-3.31;80.49;101051.84;4923800;28;19988;-62
2022/11/17 00:05:12;;;;;;;12.70;7.15;;;;;;;-2.80;80.63;101088.53;4916487;28;20130;-62
2022/11/17 00:10:56;;;;;;;11.18;6.32;;;;;;;-2.44;80.23;101093.75;4900464;28;20049;-62
2022/11/17 00:16:59;;;;;;;14.52;7.00;;;;;;;-1.95;77.71;101096.09;4893751;28;20129;-61
2022/11/17 00:22:48;;;;;;;11.70;6.75;;;;;;;-1.50;76.38;101086.25;4903302;28;20493;-64
2022/11/17 00:25:38;;;;;;;40.58;12.70;;;;;;;-1.69;76.38;101093.91;4910040;28;20057;-63
2022/11/17 00:28:51;;;;;;;21.27;9.35;;;;;;;-1.71;76.35;101091.28;4893044;28;20072;-64
2022/11/17 00:34:36;;;;;;;52.35;13.82;;;;;;;-1.55;77.12;101095.41;4908178;28;20356;-66
2022/11/17 00:37:22;;;;;;;67.53;13.40;;;;;;;-1.67;77.31;101093.19;4880624;28;20105;-67
2022/11/17 00:40:07;;;;;;;59.17;13.02;;;;;;;-1.62;77.08;101101.97;4913869;28;20296;-66
2022/11/17 00:42:52;;;;;;;43.33;12.90;;;;;;;-1.98;75.91;101107.09;4890929;28;20067;-66
2022/11/17 00:48:48;;;;;;;43.20;13.25;;;;;;;-2.10;75.92;101105.63;4893655;28;20048;-65
2022/11/17 00:51:43;;;;;;;32.13;11.73;;;;;;;-2.00;75.87;101103.59;4911594;28;20204;-66
2022/11/17 00:54:25;;;;;;;26.42;10.05;;;;;;;-2.05;75.76;101106.72;4906636;28;20104;-64
2022/11/17 00:57:13;;;;;;;26.58;8.60;;;;;;;-2.12;75.46;101102.09;4910981;28;20345;-65
2022/11/17 01:03:14;;;;;;;14.25;7.55;;;;;;;-1.81;74.88;101114.72;4885041;28;20047;-64
2022/11/17 01:05:59;;;;;;;34.22;12.90;;;;;;;-1.56;75.36;101111.59;4912824;28;20048;-64
2022/11/17 01:08:49;;;;;;;23.25;9.70;;;;;;;-1.51;74.42;101089.63;4902460;28;20102;-65
2022/11/17 01:11:38;;;;;;;78.60;25.10;;;;;;;-1.22;73.88;101123.38;4917528;28;20052;-64
2022/11/17 01:14:22;;;;;;;35.97;12.63;;;;;;;-1.42;73.52;101074.66;4895013;28;20124;-67
2022/11/17 01:17:26;;;;;;;30.38;10.88;;;;;;;-1.05;73.33;101096.78;4927396;28;20128;-66
2022/11/17 01:20:14;;;;;;;23.33;9.63;;;;;;;-0.87;72.71;101123.28;4904303;28;20072;-64
2022/11/17 01:26:29;;;;;;;31.35;12.15;;;;;;;-0.88;72.82;101079.56;4902252;28;20191;-64
2022/11/17 01:29:11;;;;;;;23.83;10.93;;;;;;;-0.25;73.06;101121.63;4869676;28;20064;-65
2022/11/17 01:31:55;;;;;;;30.60;11.38;;;;;;;0.06;73.20;101101.41;4908526;28;20056;-64
2022/11/17 01:34:38;;;;;;;21.77;11.38;;;;;;;0.47;72.46;101114.97;4909898;28;20057;-65
2022/11/17 01:37:39;;;;;;;31.30;10.35;;;;;;;0.71;71.24;101110.78;4889810;28;20062;-64
2022/11/17 01:40:19;;;;;;;39.85;11.48;;;;;;;0.77;70.57;101105.84;4893509;28;20048;-65
2022/11/17 01:43:23;;;;;;;20.55;10.32;;;;;;;0.70;69.64;101103.88;4927652;28;20049;-65
2022/11/17 01:46:08;;;;;;;35.60;10.88;;;;;;;0.64;69.29;101098.50;4879687;28;20052;-65
2022/11/17 01:48:51;;;;;;;28.80;14.57;;;;;;;0.38;68.85;101106.13;4901378;28;20045;-65
2022/11/17 01:51:35;;;;;;;32.65;12.43;;;;;;;-0.04;70.66;101101.03;4868017;28;20069;-64
2022/11/17 01:54:25;;;;;;;47.55;15.77;;;;;;;-0.81;71.47;101014.00;4923765;28;20040;-64
2022/11/17 01:57:42;;;;;;;22.83;10.35;;;;;;;-0.92;70.84;101067.44;4911824;28;20094;-65
2022/11/17 02:00:45;;;;;;;29.55;10.82;;;;;;;-0.64;71.74;101095.16;4885695;28;20534;-64
2022/11/17 02:03:34;;;;;;;57.03;30.25;;;;;;;-0.54;71.36;101071.63;4860773;28;20095;-64
2022/11/17 02:06:31;;;;;;;42.63;21.05;;;;;;;-0.18;71.49;101086.75;4904785;28;20052;-64
2022/11/17 02:09:09;;;;;;;20.02;9.43;;;;;;;-0.16;71.60;101038.03;4915066;28;20045;-64
2022/11/17 02:11:56;;;;;;;11.82;6.28;;;;;;;0.30;70.09;101092.09;4905790;28;20112;-66
2022/11/17 02:14:52;;;;;;;11.88;6.57;;;;;;;0.24;68.31;101050.72;4930699;28;20111;-65
2022/11/17 02:17:39;;;;;;;8.25;5.65;;;;;;;0.57;66.89;101093.94;4916980;28;20052;-65
2022/11/17 02:20:56;;;;;;;25.85;8.18;;;;;;;0.72;65.83;101080.78;4894870;28;20040;-64
2022/11/17 02:24:09;;;;;;;12.02;6.07;;;;;;;0.76;65.33;101104.09;4905184;28;20063;-64
2022/11/17 02:27:21;;;;;;;15.30;7.22;;;;;;;0.76;64.86;101093.81;4899699;28;20101;-64
2022/11/17 02:30:23;;;;;;;12.85;7.40;;;;;;;0.61;66.98;101088.97;4912234;28;20047;-65
2022/11/17 02:33:14;;;;;;;12.13;6.78;;;;;;;0.30;65.65;101039.78;4893306;28;21011;-64
2022/11/17 02:36:21;;;;;;;11.00;6.20;;;;;;;0.65;64.42;101079.69;4909934;28;20052;-65
2022/11/17 02:39:18;;;;;;;16.40;7.18;;;;;;;0.56;64.50;101075.06;4932876;28;20050;-64
2022/11/17 02:42:18;;;;;;;12.88;7.18;;;;;;;0.49;63.93;101069.63;4930611;28;20120;-64
2022/11/17 02:45:21;;;;;;;11.85;6.57;;;;;;;0.40;64.14;101027.34;4908266;28;20053;-65
2022/11/17 02:48:16;;;;;;;12.52;6.55;;;;;;;0.75;63.77;101071.50;4904304;28;20055;-65
2022/11/17 02:57:08;;;;;;;16.15;8.52;;;;;;;0.70;63.27;101057.59;4920296;28;20064;-66
2022/11/17 02:59:51;;;;;;;12.13;7.35;;;;;;;0.59;63.71;101058.88;4925757;28;20460;-65
2022/11/17 03:06:10;;;;;;;10.32;6.68;;;;;;;0.45;63.16;101066.09;4864412;28;20510;-63
2022/11/17 03:09:12;;;;;;;13.00;7.72;;;;;;;0.10;63.64;101010.75;4902976;28;20112;-65
2022/11/17 03:11:52;;;;;;;11.43;6.70;;;;;;;0.39;64.04;101060.69;4911493;28;20068;-65
2022/11/17 03:14:47;;;;;;;11.50;7.32;;;;;;;0.36;64.78;101058.91;4900819;28;20036;-65
2022/11/17 03:17:57;;;;;;;14.05;7.32;;;;;;;0.33;64.77;101056.22;4883330;28;20103;-65
2022/11/17 03:20:46;;;;;;;9.82;6.65;;;;;;;0.19;65.37;101016.25;4882442;28;20349;-64
2022/11/17 03:23:45;;;;;;;13.25;7.68;;;;;;;0.51;64.58;101055.16;4911901;28;20045;-65
2022/11/17 03:26:34;;;;;;;12.07;7.15;;;;;;;0.65;65.67;101048.81;4904894;28;20100;-63
2022/11/17 03:29:40;;;;;;;18.03;8.83;;;;;;;0.66;64.81;101042.84;4903833;28;20108;-66
2022/11/17 03:32:21;;;;;;;14.13;7.82;;;;;;;0.78;64.80;101045.88;4867323;28;20331;-65
2022/11/17 03:35:08;;;;;;;10.88;6.65;;;;;;;0.76;64.55;101037.22;4896446;28;20049;-65
2022/11/17 03:38:07;;;;;;;10.88;6.47;;;;;;;0.65;64.05;101023.09;4876774;28;20071;-65
2022/11/17 03:41:26;;;;;;;12.60;7.68;;;;;;;0.71;63.23;101038.75;4888062;28;20052;-65
2022/11/17 03:44:09;;;;;;;11.48;6.57;;;;;;;0.76;63.02;101031.19;4843869;28;20049;-65
2022/11/17 03:46:46;;;;;;;10.90;6.85;;;;;;;0.67;62.26;101021.44;4905703;28;20690;-65
2022/11/17 03:49:35;;;;;;;11.32;6.50;;;;;;;0.74;61.63;101038.84;4861088;28;20081;-65
2022/11/17 03:52:28;;;;;;;;;;;;;;;;;;;;;
2022/11/17 03:55:34;;;;;;;13.43;7.38;;;;;;;0.94;61.24;101038.69;4855649;28;20045;-65
2022/11/17 03:58:34;;;;;;;10.93;6.63;;;;;;;0.95;59.86;101035.28;4885369;28;20049;-66
2022/11/17 04:06:54;;;;;;;40.42;19.10;;;;;;;0.90;58.75;101003.38;4892024;28;20041;-66
2022/11/17 04:15:58;;;;;;;12.80;6.60;;;;;;;0.40;58.77;100996.50;4895978;28;20055;-65
2022/11/17 04:18:35;;;;;;;13.93;8.77;;;;;;;0.43;58.62;101036.88;4824737;28;20054;-67
2022/11/17 04:21:19;;;;;;;8.95;6.43;;;;;;;0.35;58.51;101049.44;4899387;28;20037;-66
2022/11/17 04:24:02;;;;;;;14.82;7.57;;;;;;;0.25;59.37;101036.16;4901410;28;20115;-65
2022/11/17 04:32:56;;;;;;;14.52;8.70;;;;;;;-0.12;60.83;101002.25;4899570;28;20045;-66
2022/11/17 04:35:55;;;;;;;30.73;19.65;;;;;;;0.01;61.39;101041.25;4907331;28;20044;-66
2022/11/17 04:38:33;;;;;;;11.13;6.70;;;;;;;-0.02;61.71;101032.63;4898059;28;20624;-65
2022/11/17 04:44:13;;;;;;;;;;;;;;;-0.03;61.54;101046.25;4911558;28;20179;-65
2022/11/17 04:46:56;;;;;;;16.83;6.70;;;;;;;-0.13;62.30;101059.56;4908334;28;19929;-67
2022/11/17 04:49:44;;;;;;;71.32;45.75;;;;;;;-0.16;64.14;101059.44;4908988;28;20049;-66
2022/11/17 04:52:31;;;;;;;18.27;11.93;;;;;;;-0.20;64.94;101062.72;4919682;28;20058;-66
2022/11/17 04:55:13;;;;;;;50.30;35.47;;;;;;;-0.22;65.68;101064.34;4885484;28;20064;-66
2022/11/17 04:58:10;;;;;;;23.25;15.25;;;;;;;-0.36;66.25;101065.47;4917107;28;20128;-68
2022/11/17 05:00:43;;;;;;;12.18;7.50;;;;;;;-0.52;67.72;101064.84;4896281;28;20095;-66
2022/11/17 05:03:24;;;;;;;14.25;7.63;;;;;;;-0.60;67.68;101075.59;4919852;28;20044;-66
2022/11/17 05:06:30;;;;;;;12.35;7.38;;;;;;;-0.77;68.45;101057.81;4883946;28;20048;-66
2022/11/17 05:09:27;;;;;;;28.70;19.85;;;;;;;-0.67;68.63;101082.19;4906984;28;20048;-65
2022/11/17 05:17:58;;;;;;;11.50;7.18;;;;;;;-0.79;69.14;101091.94;4916245;28;20159;-66
2022/11/17 05:20:48;;;;;;;12.25;6.68;;;;;;;-0.91;69.28;101100.84;4931833;28;20037;-66
2022/11/17 05:26:37;;;;;;;57.47;38.55;;;;;;;-0.95;70.47;101109.25;4891071;28;20048;-66
2022/11/17 05:29:25;;;;;;;170.40;119.15;;;;;;;-1.55;70.70;101026.22;4913494;28;20359;-66
2022/11/17 05:32:06;;;;;;;13.50;7.63;;;;;;;-1.12;70.76;101125.56;4910844;28;25129;-65
2022/11/17 05:34:51;;;;;;;36.95;26.42;;;;;;;-1.34;71.13;101104.09;4904380;28;20053;-66
2022/11/17 05:37:45;;;;;;;10.88;6.88;;;;;;;-1.38;71.63;101135.50;4892899;28;21048;-66
2022/11/17 05:40:48;;;;;;;11.30;6.38;;;;;;;-1.46;71.91;101149.66;4882757;28;20261;-66
2022/11/17 05:43:45;;;;;;;16.83;10.73;;;;;;;-1.55;72.17;101151.78;4921475;28;20047;-65
2022/11/17 05:46:52;;;;;;;16.33;9.00;;;;;;;-1.68;72.71;101162.28;4919029;28;20045;-66
2022/11/17 05:49:34;;;;;;;11.65;6.70;;;;;;;-1.83;73.09;101153.06;4882826;28;20432;-66
2022/11/17 05:52:18;;;;;;;11.32;6.60;;;;;;;-2.35;73.58;101086.50;4932233;28;20040;-66
2022/11/17 05:58:23;;;;;;;9.32;6.53;;;;;;;-2.06;74.22;101179.25;4912210;28;20052;-66
2022/11/17 06:01:19;;;;;;;11.55;6.97;;;;;;;-2.06;74.96;101180.13;4925139;28;20048;-66
2022/11/17 06:04:12;;;;;;;14.00;7.97;;;;;;;-2.08;75.11;101180.84;4909659;28;20357;-66
2022/11/17 06:06:51;;;;;;;31.60;19.60;;;;;;;-2.09;75.69;101189.34;4899087;28;20057;-66
2022/11/17 06:09:38;;;;;;;20.67;11.63;;;;;;;-2.13;75.66;101183.19;4903463;28;20065;-67
2022/11/17 06:12:40;;;;;;;47.05;26.05;;;;;;;-2.09;76.03;101190.22;4891726;28;20057;-66
2022/11/17 06:15:56;;;;;;;16.95;9.80;;;;;;;-2.09;76.15;101181.66;4841996;28;20054;-68
2022/11/17 06:19:04;;;;;;;13.23;9.13;;;;;;;-2.15;76.71;101189.03;4899861;28;20104;-66
2022/11/17 06:21:58;;;;;;;23.30;14.18;;;;;;;-2.34;76.63;101167.63;4860831;28;20056;-67
2022/11/17 06:25:03;;;;;;;15.23;9.23;;;;;;;-2.28;77.30;101188.41;4912889;28;20297;-67
2022/11/17 06:27:48;;;;;;;32.40;22.40;;;;;;;-2.85;77.57;101115.56;4881890;28;20618;-67
2022/11/17 06:30:42;;;;;;;21.02;10.98;;;;;;;-2.44;77.92;101186.78;4915828;28;20057;-66
2022/11/17 06:33:27;;;;;;;11.80;8.73;;;;;;;-2.48;78.56;101194.22;4908699;28;20040;-66
2022/11/17 06:39:19;;;;;;;14.13;8.50;;;;;;;-2.53;78.66;101201.66;4873084;28;20056;-65
2022/11/17 06:42:15;;;;;;;17.63;9.20;;;;;;;-3.33;79.17;101063.66;4850979;28;20043;-65
2022/11/17 06:44:55;;;;;;;28.38;15.75;;;;;;;-2.51;79.42;101209.41;4863029;28;20053;-67
2022/11/17 06:47:57;;;;;;;24.08;13.60;;;;;;;-2.49;79.80;101221.47;4891029;28;20350;-67
2022/11/17 06:50:48;;;;;;;123.43;52.05;;;;;;;-2.50;79.88;101216.28;4873711;28;20053;-67
2022/11/17 06:53:37;;;;;;;97.97;43.25;;;;;;;-2.39;80.65;101218.59;4835192;28;20094;-66
2022/11/17 06:56:25;;;;;;;48.70;23.38;;;;;;;-2.35;80.50;101221.31;4881218;28;20076;-67
2022/11/17 06:59:14;;;;;;;26.63;13.65;;;;;;;-2.37;80.66;101223.81;4858596;28;20051;-66
2022/11/17 07:01:55;;;;;;;24.08;12.38;;;;;;;-2.36;80.43;101230.66;4851720;28;20050;-67
2022/11/17 07:04:43;;;;;;;32.92;13.98;;;;;;;-2.42;80.30;101238.91;4843395;28;20065;-67
2022/11/17 07:07:29;;;;;;;31.90;15.63;;;;;;;-2.45;80.17;101240.44;4862117;28;20041;-66
2022/11/17 07:13:20;;;;;;;20.80;10.80;;;;;;;-2.45;80.33;101240.44;4862663;28;20322;-67
2022/11/17 07:16:08;;;;;;;21.00;10.90;;;;;;;-2.42;80.09;101245.69;4929307;28;20232;-67
2022/11/17 07:19:03;;;;;;;21.10;12.07;;;;;;;-2.34;80.46;101259.78;4888931;28;20053;-67
2022/11/17 07:21:41;;;;;;;21.83;11.52;;;;;;;-2.32;80.21;101250.50;4891120;28;20115;-66
2022/11/17 07:24:19;;;;;;;17.92;10.73;;;;;;;-2.30;80.51;101254.00;4884651;28;20049;-67
2022/11/17 07:27:14;;;;;;;18.80;10.43;;;;;;;-2.24;81.30;101256.91;4837014;28;20399;-67
2022/11/17 07:29:58;;;;;;;18.30;10.23;;;;;;;-2.26;81.16;101263.63;4860736;28;20060;-67
2022/11/17 07:32:51;;;;;;;18.50;10.05;;;;;;;-2.30;81.34;101266.81;4888155;28;20052;-68
2022/11/17 07:35:43;;;;;;;18.27;9.85;;;;;;;-2.29;81.93;101273.72;4909154;28;20062;-67
2022/11/17 07:38:22;;;;;;;13.48;7.38;;;;;;;-2.25;82.75;101267.91;4906201;28;20048;-67
2022/11/17 07:41:13;;;;;;;11.50;7.60;;;;;;;-2.27;82.76;101277.22;4903188;28;20040;-67
2022/11/17 07:47:23;;;;;;;13.38;8.15;;;;;;;-2.17;84.27;101289.69;4902978;28;20116;-67
2022/11/17 07:50:08;;;;;;;16.40;8.40;;;;;;;-2.17;84.16;101286.28;4920093;28;20118;-67
2022/11/17 07:53:01;;;;;;;14.18;7.78;;;;;;;-2.23;84.30;101294.50;4872151;28;20056;-67
2022/11/17 07:55:35;;;;;;;14.38;8.07;;;;;;;-2.30;84.72;101292.41;4907868;28;20348;-67
2022/11/17 07:58:18;;;;;;;12.10;7.75;;;;;;;-2.46;85.00;101282.19;4894524;28;20311;-68
2022/11/17 08:01:48;;;;;;;109.18;37.10;;;;;;;-2.45;85.22;101301.84;4876122;28;20324;-66
2022/11/17 08:11:09;;;;;;;37.45;17.98;;;;;;;-2.73;87.44;101310.63;4899366;28;20048;-66
2022/11/17 08:14:15;;;;;;;61.38;29.42;;;;;;;-2.70;88.33;101320.13;4919928;28;20048;-67
2022/11/17 08:16:57;;;;;;;44.03;24.48;;;;;;;-2.69;88.65;101312.56;4851970;28;20067;-68
2022/11/17 08:19:47;;;;;;;30.13;16.70;;;;;;;-2.69;88.61;101312.56;4876613;28;20825;-67
2022/11/17 08:22:38;;;;;;;25.30;13.90;;;;;;;-2.74;88.81;101313.97;4901803;28;20056;-68
2022/11/17 08:25:21;;;;;;;18.55;10.48;;;;;;;-2.72;89.15;101322.63;4908455;28;20076;-70
2022/11/17 08:28:02;;;;;;;18.75;9.27;;;;;;;-2.72;89.15;101312.41;4914496;28;20051;-69
2022/11/17 08:30:52;;;;;;;17.33;9.95;;;;;;;-2.75;89.20;101317.31;4891130;28;20051;-68
2022/11/17 08:33:35;;;;;;;16.25;10.20;;;;;;;-2.80;89.21;101323.88;4886391;28;20100;-69
2022/11/17 08:36:25;;;;;;;15.90;9.43;;;;;;;-2.89;89.23;101323.38;4867701;28;20044;-69
2022/11/17 08:39:00;;;;;;;15.68;10.10;;;;;;;-2.98;89.64;101322.88;4890011;28;20210;-72
2022/11/17 08:41:58;;;;;;;13.93;9.45;;;;;;;-3.04;89.86;101334.53;4893897;28;20117;-70
2022/11/17 08:44:58;;;;;;;24.00;10.93;;;;;;;-2.98;89.92;101344.19;4901315;28;20104;-71
2022/11/17 08:48:06;;;;;;;16.80;10.43;;;;;;;-3.05;89.84;101332.75;4920138;28;20062;-71
2022/11/17 08:51:14;;;;;;;15.27;9.80;;;;;;;-3.08;89.44;101345.38;4913576;28;20059;-71
2022/11/17 08:54:01;;;;;;;17.13;9.43;;;;;;;-3.22;89.62;101346.28;4893018;28;20059;-71
2022/11/17 08:56:49;;;;;;;15.30;8.57;;;;;;;-3.40;89.72;101347.78;4919686;28;20063;-71
2022/11/17 08:59:32;;;;;;;13.02;8.00;;;;;;;-3.55;89.81;101347.78;4941702;28;20056;-71
2022/11/17 09:02:27;;;;;;;22.55;11.52;;;;;;;-3.68;90.14;101351.28;4875032;28;20064;-70
2022/11/17 09:05:19;;;;;;;16.33;8.32;;;;;;;-3.78;90.14;101349.00;4888465;28;20075;-72
2022/11/17 09:08:08;;;;;;;11.90;7.47;;;;;;;-3.88;90.25;101356.91;4910849;28;20052;-73
2022/11/17 09:11:09;;;;;;;12.45;7.75;;;;;;;-4.01;90.49;101353.63;4917620;28;20041;-72
2022/11/17 09:13:55;;;;;;;12.77;7.63;;;;;;;-4.06;90.55;101352.47;4914471;28;20065;-71
2022/11/17 09:16:32;;;;;;;13.18;8.00;;;;;;;-4.09;90.74;101357.41;4898985;28;20036;-71
2022/11/17 09:19:10;;;;;;;12.32;6.95;;;;;;;-4.15;90.67;101363.00;4927867;28;20052;-71
2022/11/17 09:22:04;;;;;;;14.75;8.15;;;;;;;-4.24;90.66;101359.91;4897632;28;20034;-68
2022/11/17 09:27:35;;;;;;;17.40;8.18;;;;;;;-4.49;89.99;101360.09;4910358;28;20083;-72
2022/11/17 09:30:31;;;;;;;56.20;22.48;;;;;;;-4.56;89.92;101378.34;4896267;28;20036;-70
2022/11/17 09:33:11;;;;;;;46.15;19.65;;;;;;;-4.72;90.04;101370.50;4937072;28;20038;-69
2022/11/17 09:36:09;;;;;;;;;;;;;;;;;;;;;
2022/11/17 09:38:53;;;;;;;35.22;15.60;;;;;;;-5.03;90.36;101379.63;4933476;28;20052;-70
2022/11/17 09:41:56;;;;;;;42.85;17.50;;;;;;;-5.16;90.17;101386.41;4900981;28;20061;-68
2022/11/17 09:44:54;;;;;;;59.95;22.65;;;;;;;-5.26;90.67;101385.81;4908313;28;20067;-69
2022/11/17 09:47:45;;;;;;;64.45;24.38;;;;;;;-5.28;90.88;101387.38;4878010;28;20048;-70
2022/11/17 09:50:57;;;;;;;42.25;17.35;;;;;;;-5.32;90.83;101385.38;4907407;28;20037;-68
2022/11/17 09:53:49;;;;;;;51.47;22.48;;;;;;;-5.50;90.91;101366.38;4841336;28;20077;-68
2022/11/17 09:56:37;;;;;;;40.67;18.50;;;;;;;-5.43;90.35;101396.56;4869922;28;20061;-69
2022/11/17 09:59:42;;;;;;;28.00;13.80;;;;;;;-5.42;90.61;101398.31;4947416;28;20044;-68
2022/11/17 10:05:38;;;;;;;18.05;10.23;;;;;;;-5.52;90.07;101395.94;4932963;28;20112;-68
2022/11/17 10:08:37;;;;;;;17.67;10.25;;;;;;;-5.61;90.28;101408.09;4927999;28;20057;-68
2022/11/17 10:14:48;;;;;;;15.23;8.88;;;;;;;-5.79;90.36;101406.06;4899483;28;20057;-67
2022/11/17 10:17:38;;;;;;;15.52;8.73;;;;;;;-5.88;90.37;101410.53;4913322;28;20514;-68
2022/11/17 10:20:26;;;;;;;14.73;9.15;;;;;;;-6.23;90.80;101383.59;4868069;28;20149;-68
2022/11/17 10:23:07;;;;;;;13.15;8.73;;;;;;;-5.76;91.30;101421.53;4914190;28;20058;-67
2022/11/17 10:25:59;;;;;;;12.70;7.80;;;;;;;-6.03;91.31;101368.81;4886535;28;20152;-68
2022/11/17 10:32:21;;;;;;;11.80;7.45;;;;;;;-5.90;90.59;101422.25;4901660;28;20037;-67
2022/11/17 10:35:26;;;;;;;15.60;9.45;;;;;;;-6.20;90.64;101401.59;4922999;28;20058;-67
2022/11/17 10:38:20;;;;;;;18.75;11.02;;;;;;;-6.15;90.52;101410.44;4867970;28;20287;-67
2022/11/17 10:40:57;;;;;;;16.58;8.93;;;;;;;-6.37;90.56;101402.09;4849726;28;20062;-65
2022/11/17 10:44:11;;;;;;;15.25;8.55;;;;;;;-6.26;90.70;101439.34;4892889;28;20124;-65
2022/11/17 10:47:02;;;;;;;21.15;9.43;;;;;;;-6.65;90.92;101379.81;4907323;28;20075;-65
2022/11/17 10:50:39;;;;;;;18.48;8.98;;;;;;;-6.47;90.81;101425.09;4880953;28;20055;-65
2022/11/17 10:53:50;;;;;;;14.77;7.90;;;;;;;-6.64;90.88;101437.53;4875251;28;20049;-65
2022/11/17 10:56:40;;;;;;;14.85;7.78;;;;;;;-6.73;91.27;101447.03;4888815;28;20049;-65
2022/11/17 11:02:37;;;;;;;16.42;7.15;;;;;;;-6.87;91.33;101427.34;4849330;28;20098;-64
2022/11/17 11:05:33;;;;;;;19.77;8.05;;;;;;;-6.87;91.27;101433.31;4832502;28;20060;-65
2022/11/17 11:08:25;;;;;;;15.82;9.23;;;;;;;-6.90;91.27;101452.53;4877754;28;20088;-65
2022/11/17 11:11:18;;;;;;;13.38;8.32;;;;;;;-7.07;91.45;101434.41;4879085;28;20115;-65
2022/11/17 11:14:16;;;;;;;20.02;8.50;;;;;;;-7.05;91.33;101448.09;4873840;28;20042;-65
2022/11/17 11:17:08;;;;;;;32.22;11.57;;;;;;;-7.13;91.38;101444.13;4845025;28;20454;-65
2022/11/17 11:23:27;;;;;;;56.85;15.35;;;;;;;-7.07;91.77;101454.72;4871265;28;20099;-65
2022/11/17 11:26:25;;;;;;;64.32;17.08;;;;;;;-7.13;91.47;101456.84;4856072;28;20621;-65
2022/11/17 11:33:15;;;;;;;57.80;17.08;;;;;;;-7.00;92.20;101456.94;4820360;28;20079;-64
2022/11/17 11:36:22;;;;;;;59.40;18.33;;;;;;;-7.09;91.73;101446.09;4838053;28;20057;-64
2022/11/17 11:39:07;;;;;;;23.80;10.00;;;;;;;-7.02;91.81;101458.50;4812546;28;20055;-64
2022/11/17 11:42:01;;;;;;;30.42;12.73;;;;;;;-7.10;91.19;101449.44;4854238;28;20057;-66
2022/11/17 11:45:09;;;;;;;19.67;9.30;;;;;;;-7.11;91.07;101457.84;4820708;28;20055;-66
2022/11/17 11:51:15;;;;;;;14.23;7.53;;;;;;;-7.49;91.10;101397.47;4850102;28;20111;-64
2022/11/17 11:54:27;;;;;;;14.25;8.88;;;;;;;-7.02;91.05;101463.56;4804290;28;20050;-65
2022/11/17 12:00:31;;;;;;;14.52;6.97;;;;;;;-6.88;89.60;101466.25;4855758;28;20122;-64
2022/11/17 12:06:46;;;;;;;12.52;7.20;;;;;;;-6.98;88.45;101463.03;4856088;28;20046;-66
2022/11/17 12:09:46;;;;;;;15.13;7.60;;;;;;;-7.03;88.32;101466.91;4849018;28;20046;-65
2022/11/17 12:12:40;;;;;;;13.77;7.90;;;;;;;-7.03;88.24;101466.91;4848832;28;20061;-63
2022/11/17 12:15:44;;;;;;;16.15;8.27;;;;;;;-6.91;87.86;101466.00;4812721;28;20371;-65
2022/11/17 12:21:56;;;;;;;13.90;7.45;;;;;;;-6.97;86.78;101467.34;4842348;28;20057;-63
2022/11/17 12:24:47;;;;;;;14.68;7.95;;;;;;;-7.02;86.96;101471.19;4871321;28;20054;-62
2022/11/17 12:27:51;;;;;;;16.08;8.48;;;;;;;-7.05;87.69;101467.56;4835312;28;20042;-63
2022/11/17 12:31:09;;;;;;;14.43;7.90;;;;;;;-7.16;87.39;101469.31;4840314;28;20054;-63
2022/11/17 12:34:22;;;;;;;14.70;6.93;;;;;;;-7.25;87.99;101478.78;4786436;28;20200;-63
2022/11/17 12:37:32;;;;;;;25.60;10.95;;;;;;;-7.46;87.60;101475.50;4854900;28;20067;-62
2022/11/17 12:40:45;;;;;;;18.95;8.55;;;;;;;-7.90;87.99;101423.19;4843608;28;20055;-62
2022/11/17 12:43:34;;;;;;;20.02;9.63;;;;;;;-7.66;88.78;101474.91;4862661;28;20415;-62
2022/11/17 12:46:46;;;;;;;48.53;18.67;;;;;;;-7.75;88.64;101481.81;4843868;28;20056;-62
2022/11/17 12:49:50;;;;;;;18.23;9.35;;;;;;;-7.78;89.01;101475.63;4856383;28;20094;-62
2022/11/17 12:53:17;;;;;;;23.00;10.90;;;;;;;-7.85;89.01;101474.28;4831880;28;20054;-62
2022/11/17 12:56:38;;;;;;;25.97;12.50;;;;;;;-7.87;89.44;101464.00;4836478;28;20070;-61
2022/11/17 13:00:10;;;;;;;14.25;8.98;;;;;;;-7.85;89.36;101462.47;4857782;28;20293;-61
2022/11/17 13:03:15;;;;;;;14.65;8.57;;;;;;;-7.95;88.78;101467.59;4849407;28;20052;-60
2022/11/17 13:06:21;;;;;;;14.98;8.18;;;;;;;-8.09;89.14;101445.34;4899717;28;20032;-61
2022/11/17 13:15:31;;;;;;;10.43;6.45;;;;;;;-8.09;89.33;101465.66;4878241;28;20055;-60
2022/11/17 13:18:31;;;;;;;11.13;6.57;;;;;;;-8.05;89.28;101467.66;4876752;28;20045;-61
2022/11/17 13:24:29;;;;;;;;;;;;;;;-7.73;89.37;101487.03;4831783;28;20436;-62
2022/11/17 13:27:06;;;;;;;15.13;7.72;;;;;;;-8.29;87.74;101426.94;4932292;28;20344;-61
2022/11/17 13:29:44;;;;;;;13.88;7.25;;;;;;;-8.09;86.68;101485.94;4910503;28;20083;-61
2022/11/17 13:32:28;;;;;;;13.98;7.78;;;;;;;-8.18;85.85;101491.19;4912230;28;20124;-61
2022/11/17 13:35:28;;;;;;;12.77;7.40;;;;;;;-8.30;84.86;101483.50;4932151;28;20057;-61
2022/11/17 13:38:15;;;;;;;14.35;7.15;;;;;;;-8.29;84.42;101497.94;4895820;28;20055;-61
2022/11/17 13:41:08;;;;;;;14.93;7.57;;;;;;;-8.44;83.51;101501.84;4895914;28;20047;-61
2022/11/17 13:43:55;;;;;;;15.55;8.10;;;;;;;-8.57;83.58;101491.50;4900432;28;20119;-61
2022/11/17 13:46:44;;;;;;;16.08;8.52;;;;;;;-8.84;84.25;101435.31;4869004;28;20104;-61
2022/11/17 13:49:53;;;;;;;14.65;7.75;;;;;;;-8.42;84.39;101495.25;4871673;28;20215;-61
2022/11/17 13:52:53;;;;;;;14.50;8.07;;;;;;;-8.39;84.38;101504.72;4859096;28;20037;-61
2022/11/17 13:55:30;;;;;;;17.42;8.50;;;;;;;-8.44;84.73;101516.16;4925643;28;20056;-62
2022/11/17 13:58:28;;;;;;;16.30;8.70;;;;;;;-8.57;84.63;101510.13;4923201;28;20460;-61
2022/11/17 14:01:29;;;;;;;14.93;7.82;;;;;;;-8.62;85.07;101502.91;4913163;28;20045;-61
2022/11/17 14:04:39;;;;;;;13.30;8.07;;;;;;;-8.64;85.15;101517.09;4890452;28;20056;-62
2022/11/17 14:07:37;;;;;;;15.25;9.70;;;;;;;-9.59;84.68;101369.38;4868362;28;20129;-61
2022/11/17 14:10:31;;;;;;;15.15;8.68;;;;;;;-9.01;84.92;101458.41;4903542;28;20076;-62
2022/11/17 14:13:32;;;;;;;17.95;9.43;;;;;;;-8.66;85.42;101523.69;4894560;28;20065;-61
2022/11/17 14:22:44;;;;;;;11.45;6.43;;;;;;;-8.77;85.22;101531.31;4895260;28;20065;-62
2022/11/17 14:25:48;;;;;;;9.18;5.80;;;;;;;-8.95;84.92;101527.28;4934475;28;20564;-62
2022/11/17 14:28:27;;;;;;;11.73;6.25;;;;;;;-9.31;85.25;101515.88;4923216;28;20061;-61
2022/11/17 14:31:04;;;;;;;11.80;6.38;;;;;;;-9.34;85.69;101513.09;4910488;28;20040;-61
2022/11/17 14:33:50;;;;;;;13.77;7.50;;;;;;;-9.22;86.43;101520.84;4920215;28;20045;-61
2022/11/17 14:36:40;;;;;;;10.07;6.03;;;;;;;-9.26;86.70;101524.78;4899317;28;20045;-61
2022/11/17 14:39:24;;;;;;;10.70;6.72;;;;;;;-9.24;86.53;101524.88;4912887;28;20041;-61
2022/11/17 14:45:34;;;;;;;11.77;6.63;;;;;;;-9.25;86.98;101530.72;4933377;28;20071;-61
2022/11/17 14:48:15;;;;;;;9.73;6.60;;;;;;;-9.33;86.84;101530.09;4866469;28;20447;-61
2022/11/17 14:51:10;;;;;;;12.52;6.32;;;;;;;-9.35;87.05;101529.06;4925173;28;20075;-62
2022/11/17 14:53:56;;;;;;;12.98;6.53;;;;;;;-9.53;86.89;101514.84;4926557;28;20036;-61
2022/11/17 14:56:36;;;;;;;10.20;6.15;;;;;;;-9.54;87.03;101524.09;4939811;28;20082;-61
2022/11/17 14:59:22;;;;;;;11.20;6.45;;;;;;;-9.50;87.32;101530.31;4924426;28;20056;-61
2022/11/17 15:02:07;;;;;;;10.68;6.72;;;;;;;-9.41;87.51;101536.13;4899330;28;20056;-61
2022/11/17 15:04:52;;;;;;;;;;;;;;;-9.38;87.44;101541.47;4919052;28;20044;-60
2022/11/17 15:07:40;;;;;;;11.32;5.68;;;;;;;-9.42;87.28;101534.38;4916443;28;19923;-61
2022/11/17 15:10:23;;;;;;;11.50;6.20;;;;;;;-9.49;87.03;101537.16;4887294;28;20099;-61
2022/11/17 15:13:06;;;;;;;10.60;6.15;;;;;;;-9.38;87.22;101531.34;4877160;28;20094;-61
2022/11/17 15:15:59;;;;;;;10.05;5.82;;;;;;;-9.49;86.67;101532.09;4916232;28;20068;-60
2022/11/17 15:21:30;;;;;;;12.88;6.75;;;;;;;-9.58;86.98;101529.69;4929738;28;20071;-60
2022/11/17 15:24:19;;;;;;;12.80;6.78;;;;;;;-9.66;86.96;101539.16;4906620;28;20052;-60
2022/11/17 15:27:19;;;;;;;9.93;5.75;;;;;;;-9.74;87.14;101540.13;4905476;28;20075;-61
2022/11/17 15:30:06;;;;;;;11.10;6.55;;;;;;;-9.78;87.40;101528.00;4942678;28;20047;-60
2022/11/17 15:32:44;;;;;;;14.15;6.82;;;;;;;-9.71;87.79;101535.31;4890320;28;20060;-60
2022/11/17 15:35:38;;;;;;;15.13;7.63;;;;;;;-9.64;88.11;101535.09;4935561;28;20054;-61